createdAt,value
2023-03-20T00:01:59.882Z,3.63
2023-03-20T00:04:26.608Z,1.65
2023-03-20T00:06:53.307Z,1.80
2023-03-20T00:09:20.025Z,2.15
2023-03-20T00:11:55.580Z,1.90
2023-03-20T00:14:24.680Z,1.73
2023-03-20T00:16:52.040Z,2.65
2023-03-20T00:19:24.575Z,2.80
2023-03-20T00:21:52.673Z,2.67
2023-03-20T00:24:19.715Z,2.13
2023-03-20T00:26:47.982Z,2.35
2023-03-20T00:29:21.806Z,2.10
2023-03-20T00:31:49.075Z,2.50
2023-03-20T00:34:17.708Z,2.60
2023-03-20T00:36:44.393Z,2.45
2023-03-20T00:39:11.247Z,2.33
2023-03-20T00:42:02.034Z,2.38
2023-03-20T00:44:42.375Z,2.28
2023-03-20T00:47:18.903Z,2.40
2023-03-20T00:49:48.501Z,2.47
2023-03-20T00:52:17.567Z,4.82
2023-03-20T00:54:44.274Z,2.80
2023-03-20T00:57:30.549Z,2.70
2023-03-20T01:00:02.704Z,2.80
2023-03-20T01:02:31.114Z,2.85
2023-03-20T01:04:58.421Z,2.83
2023-03-20T01:07:25.187Z,2.85
2023-03-20T01:09:52.698Z,2.88
2023-03-20T01:12:19.606Z,2.47
2023-03-20T01:14:53.281Z,2.80
2023-03-20T01:17:22.812Z,2.78
2023-03-20T01:19:49.620Z,2.72
2023-03-20T01:22:18.142Z,2.78
2023-03-20T01:24:45.481Z,2.67
2023-03-20T01:27:15.454Z,2.40
2023-03-20T01:29:42.626Z,2.50
2023-03-20T01:32:19.739Z,2.78
2023-03-20T01:34:47.556Z,2.58
2023-03-20T01:37:18.659Z,2.58
2023-03-20T01:39:45.683Z,2.90
2023-03-20T01:42:15.849Z,2.47
2023-03-20T01:44:42.855Z,2.80
2023-03-20T01:47:18.498Z,2.60
2023-03-20T01:50:22.807Z,2.30
2023-03-20T01:52:53.585Z,2.38
2023-03-20T01:55:21.749Z,2.42
2023-03-20T01:57:50.639Z,2.67
2023-03-20T02:00:18.210Z,3.70
2023-03-20T02:02:47.605Z,2.70
2023-03-20T02:05:18.051Z,2.92
2023-03-20T02:07:50.421Z,2.95
2023-03-20T02:10:18.972Z,3.22
2023-03-20T02:12:47.485Z,3.42
2023-03-20T02:15:17.101Z,3.15
2023-03-20T02:17:44.336Z,3.47
2023-03-20T02:20:14.019Z,3.25
2023-03-20T02:22:58.862Z,3.25
2023-03-20T02:26:00.214Z,4.53
2023-03-20T02:28:46.035Z,3.47
2023-03-20T02:31:15.710Z,3.35
2023-03-20T02:33:56.557Z,3.05
2023-03-20T02:36:48.248Z,3.28
2023-03-20T02:39:36.424Z,3.25
2023-03-20T02:42:22.306Z,3.95
2023-03-20T02:44:58.040Z,3.63
2023-03-20T02:47:37.372Z,3.40
2023-03-20T02:50:20.883Z,2.85
2023-03-20T02:52:53.756Z,3.97
2023-03-20T02:55:35.995Z,3.92
2023-03-20T02:58:23.284Z,3.38
2023-03-20T03:01:02.551Z,3.70
2023-03-20T03:03:38.324Z,3.50
2023-03-20T03:06:17.782Z,4.53
2023-03-20T03:08:50.031Z,4.07
2023-03-20T03:11:17.582Z,3.58
2023-03-20T03:13:52.157Z,4.50
2023-03-20T03:16:24.493Z,3.22
2023-03-20T03:19:03.375Z,4.20
2023-03-20T03:21:31.134Z,3.60
2023-03-20T03:23:57.980Z,3.63
2023-03-20T03:26:28.861Z,3.75
2023-03-20T03:29:02.708Z,4.10
2023-03-20T03:31:31.200Z,4.50
2023-03-20T03:33:59.895Z,4.10
2023-03-20T03:36:39.050Z,4.03
2023-03-20T03:39:48.289Z,3.80
2023-03-20T03:42:30.888Z,4.07
2023-03-20T03:45:35.514Z,4.30
2023-03-20T03:48:08.967Z,3.92
2023-03-20T03:50:48.691Z,4.68
2023-03-20T03:53:20.640Z,4.00
2023-03-20T03:55:53.671Z,4.28
2023-03-20T03:58:28.396Z,4.57
2023-03-20T04:00:57.852Z,4.05
2023-03-20T04:03:30.918Z,4.07
2023-03-20T04:06:00.451Z,4.40
2023-03-20T04:08:27.478Z,4.32
2023-03-20T04:10:54.229Z,4.63
2023-03-20T04:13:21.043Z,4.60
2023-03-20T04:15:47.799Z,4.82
2023-03-20T04:18:16.818Z,5.18
2023-03-20T04:20:44.894Z,4.85
2023-03-20T04:23:11.626Z,3.83
2023-03-20T04:25:38.528Z,4.80
2023-03-20T04:28:06.181Z,4.75
2023-03-20T04:30:32.889Z,5.15
2023-03-20T04:32:59.857Z,4.65
2023-03-20T04:35:26.593Z,5.85
2023-03-20T04:37:53.281Z,5.35
2023-03-20T04:40:20.096Z,5.10
2023-03-20T04:42:47.045Z,4.80
2023-03-20T04:45:13.874Z,5.47
2023-03-20T04:47:41.116Z,5.25
2023-03-20T04:50:08.294Z,5.00
2023-03-20T04:52:35.170Z,5.55
2023-03-20T04:55:01.930Z,5.10
2023-03-20T04:57:28.741Z,7.18
2023-03-20T04:59:55.600Z,4.88
2023-03-20T05:02:22.425Z,5.13
2023-03-20T05:04:49.207Z,5.05
2023-03-20T05:07:16.220Z,4.60
2023-03-20T05:09:43.057Z,5.30
2023-03-20T05:12:10.498Z,4.38
2023-03-20T05:14:37.207Z,4.45
2023-03-20T05:17:04.590Z,4.45
2023-03-20T05:19:31.536Z,6.30
2023-03-20T05:21:58.197Z,4.22
2023-03-20T05:24:25.496Z,4.53
2023-03-20T05:26:52.257Z,4.93
2023-03-20T05:29:19.023Z,4.57
2023-03-20T05:31:45.897Z,5.72
2023-03-20T05:34:12.891Z,4.93
2023-03-20T05:36:39.597Z,5.38
2023-03-20T05:39:06.486Z,5.90
2023-03-20T05:41:33.457Z,5.25
2023-03-20T05:44:00.335Z,3.90
2023-03-20T05:46:27.115Z,4.40
2023-03-20T05:48:53.886Z,4.47
2023-03-20T05:51:20.757Z,4.00
2023-03-20T05:53:47.470Z,4.45
2023-03-20T05:56:14.328Z,3.88
2023-03-20T05:58:42.398Z,6.53
2023-03-20T06:01:09.153Z,5.45
2023-03-20T06:03:36.904Z,4.90
2023-03-20T06:06:04.678Z,4.35
2023-03-20T06:08:31.582Z,4.43
2023-03-20T06:10:58.297Z,4.45
2023-03-20T06:13:25.042Z,4.93
2023-03-20T06:15:51.797Z,5.10
2023-03-20T06:18:18.645Z,4.40
2023-03-20T06:20:45.516Z,4.10
2023-03-20T06:23:12.307Z,4.05
2023-03-20T06:25:38.993Z,4.60
2023-03-20T06:28:05.717Z,4.53
2023-03-20T06:30:32.440Z,5.18
2023-03-20T06:32:59.284Z,5.00
2023-03-20T06:35:30.718Z,4.53
2023-03-20T06:37:58.464Z,4.20
2023-03-20T06:40:27.369Z,3.95
2023-03-20T06:42:54.985Z,5.65
2023-03-20T06:45:22.232Z,4.35
2023-03-20T06:47:49.183Z,4.78
2023-03-20T06:50:16.179Z,4.13
2023-03-20T06:52:43.513Z,4.38
2023-03-20T06:55:10.363Z,4.68
2023-03-20T06:57:37.289Z,5.32
2023-03-20T07:00:05.546Z,6.07
2023-03-20T07:02:32.540Z,6.50
2023-03-20T07:04:59.396Z,6.05
2023-03-20T07:07:26.164Z,13.52
2023-03-20T07:09:52.830Z,8.77
2023-03-20T07:12:26.443Z,5.68
2023-03-20T07:14:53.116Z,5.45
2023-03-20T07:17:20.087Z,5.30
2023-03-20T07:19:46.980Z,5.03
2023-03-20T07:22:26.038Z,6.25
2023-03-20T07:24:53.270Z,5.03
2023-03-20T07:27:20.070Z,4.78
2023-03-20T07:29:46.916Z,5.10
2023-03-20T07:32:13.698Z,3.83
2023-03-20T07:34:40.540Z,4.22
2023-03-20T07:37:07.364Z,4.22
2023-03-20T07:39:34.265Z,4.57
2023-03-20T07:42:01.032Z,4.10
2023-03-20T07:44:28.123Z,5.07
2023-03-20T07:46:54.776Z,4.20
2023-03-20T07:49:21.521Z,4.30
2023-03-20T07:51:49.711Z,5.43
2023-03-20T07:54:17.461Z,4.68
2023-03-20T07:56:44.261Z,4.75
2023-03-20T07:59:12.045Z,4.60
2023-03-20T08:01:38.860Z,7.43
2023-03-20T08:04:05.945Z,4.43
2023-03-20T08:06:32.870Z,4.95
2023-03-20T08:08:59.791Z,4.85
2023-03-20T08:11:26.752Z,4.50
2023-03-20T08:13:53.465Z,5.00
2023-03-20T08:16:20.329Z,4.93
2023-03-20T08:18:47.183Z,4.50
2023-03-20T08:21:13.964Z,5.07
2023-03-20T08:23:40.794Z,4.88
2023-03-20T08:26:07.611Z,5.38
2023-03-20T08:28:46.974Z,5.80
2023-03-20T08:31:14.869Z,5.53
2023-03-20T08:33:41.625Z,4.93
2023-03-20T08:36:08.779Z,5.60
2023-03-20T08:38:35.949Z,5.20
2023-03-20T08:41:03.273Z,5.65
2023-03-20T08:43:29.982Z,5.57
2023-03-20T08:45:56.807Z,6.70
2023-03-20T08:48:23.588Z,5.68
2023-03-20T08:50:50.476Z,4.72
2023-03-20T08:53:17.320Z,4.85
2023-03-20T08:55:51.629Z,5.18
2023-03-20T08:58:19.447Z,5.03
2023-03-20T09:00:46.231Z,4.90
2023-03-20T09:03:18.234Z,6.13
2023-03-20T09:05:49.099Z,4.53
2023-03-20T09:08:16.500Z,6.57
2023-03-20T09:10:43.225Z,5.65
2023-03-20T09:13:25.843Z,5.15
2023-03-20T09:15:54.349Z,5.78
2023-03-20T09:18:21.901Z,4.22
2023-03-20T09:20:49.608Z,4.70
2023-03-20T09:23:16.608Z,6.45
2023-03-20T09:25:43.488Z,5.03
2023-03-20T09:28:10.283Z,4.30
2023-03-20T09:30:37.558Z,4.72
2023-03-20T09:33:04.705Z,4.45
2023-03-20T09:35:31.919Z,4.88
2023-03-20T09:37:58.719Z,4.28
2023-03-20T09:40:28.546Z,4.85
2023-03-20T09:43:22.613Z,6.05
2023-03-20T09:46:08.552Z,4.88
2023-03-20T09:48:44.177Z,5.20
2023-03-20T09:51:26.856Z,3.72
2023-03-20T09:54:21.912Z,4.00
2023-03-20T09:56:52.962Z,4.25
2023-03-20T09:59:21.137Z,4.93
2023-03-20T10:01:57.155Z,3.88
2023-03-20T10:04:27.292Z,4.28
2023-03-20T10:06:54.371Z,3.47
2023-03-20T10:09:22.441Z,3.58
2023-03-20T10:12:22.306Z,3.25
2023-03-20T10:15:03.654Z,3.47
2023-03-20T10:17:52.089Z,4.57
2023-03-20T10:20:36.957Z,3.50
2023-03-20T10:23:07.449Z,4.50
2023-03-20T10:25:43.209Z,4.43
2023-03-20T10:28:14.095Z,3.42
2023-03-20T10:30:48.172Z,3.65
2023-03-20T10:33:36.799Z,3.40
2023-03-20T10:36:12.490Z,3.13
2023-03-20T10:38:52.967Z,5.57
2023-03-20T10:41:23.236Z,2.90
2023-03-20T10:43:51.620Z,2.80
2023-03-20T10:46:29.572Z,3.30
2023-03-20T10:49:19.734Z,2.95
2023-03-20T10:52:00.169Z,3.17
2023-03-20T10:54:33.369Z,2.38
2023-03-20T10:57:03.707Z,2.78
2023-03-20T10:59:51.269Z,3.53
2023-03-20T11:02:20.631Z,4.93
2023-03-20T11:04:47.912Z,4.28
2023-03-20T11:07:32.914Z,3.67
2023-03-20T11:10:05.479Z,3.03
2023-03-20T11:12:34.760Z,3.15
2023-03-20T11:15:14.026Z,3.03
2023-03-20T11:17:41.617Z,2.88
2023-03-20T11:20:10.978Z,2.78
2023-03-20T11:22:38.646Z,2.35
2023-03-20T11:25:05.664Z,4.47
2023-03-20T11:27:34.410Z,3.33
2023-03-20T11:30:04.096Z,1.88
2023-03-20T11:32:34.043Z,2.95
2023-03-20T11:35:28.703Z,2.42
2023-03-20T11:38:07.679Z,2.67
2023-03-20T11:40:35.213Z,3.20
2023-03-20T11:43:02.237Z,2.67
2023-03-20T11:45:36.469Z,3.15
2023-03-20T11:48:24.049Z,2.60
2023-03-20T11:51:04.673Z,2.92
2023-03-20T11:53:35.825Z,3.13
2023-03-20T11:56:08.465Z,3.95
2023-03-20T11:58:39.909Z,2.55
2023-03-20T12:01:12.404Z,2.20
2023-03-20T12:04:21.028Z,2.40
2023-03-20T12:07:07.973Z,3.05
2023-03-20T12:09:49.995Z,2.13
2023-03-20T12:12:43.667Z,2.13
2023-03-20T12:15:13.467Z,2.05
2023-03-20T12:17:51.446Z,1.83
2023-03-20T12:20:39.775Z,1.90
2023-03-20T12:23:09.381Z,3.50
2023-03-20T12:25:51.575Z,3.35
2023-03-20T12:28:26.266Z,3.75
2023-03-20T12:31:03.105Z,3.90
2023-03-20T12:33:34.102Z,3.35
2023-03-20T12:36:03.833Z,4.35
2023-03-20T12:38:33.057Z,3.97
2023-03-20T12:41:16.176Z,2.53
2023-03-20T12:44:01.158Z,2.33
2023-03-20T12:46:43.151Z,1.60
2023-03-20T12:49:43.794Z,1.42
2023-03-20T12:52:25.687Z,1.52
2023-03-20T12:55:25.845Z,1.35
2023-03-20T12:58:32.764Z,1.52
2023-03-20T13:01:14.498Z,1.10
2023-03-20T13:04:03.211Z,3.22
2023-03-20T13:06:54.603Z,2.97
2023-03-20T13:09:44.855Z,9.15
2023-03-20T13:12:27.333Z,2.70
2023-03-20T13:15:31.307Z,7.57
2023-03-20T13:18:23.822Z,6.78
2023-03-20T13:20:56.632Z,2.40
2023-03-20T13:23:41.762Z,3.97
2023-03-20T13:26:26.928Z,3.55
2023-03-20T13:29:19.059Z,3.17
2023-03-20T13:31:58.627Z,14.70
2023-03-20T13:34:54.539Z,25.30
2023-03-20T13:37:35.963Z,10.63
2023-03-20T13:40:21.317Z,3.85
2023-03-20T13:42:47.929Z,4.18
2023-03-20T13:45:28.415Z,5.05
2023-03-20T13:47:58.295Z,3.13
2023-03-20T13:50:41.894Z,3.58
2023-03-20T13:53:56.627Z,1.92
2023-03-20T13:56:48.490Z,2.55
2023-03-20T13:59:38.163Z,2.75
2023-03-20T14:02:15.668Z,2.17
2023-03-20T14:04:42.785Z,2.45
2023-03-20T14:07:27.715Z,1.52
2023-03-20T14:09:56.001Z,2.50
2023-03-20T14:12:26.929Z,1.98
2023-03-20T14:14:59.213Z,2.03
2023-03-20T14:17:29.218Z,2.53
2023-03-20T14:19:57.324Z,1.73
2023-03-20T14:22:28.876Z,1.40
2023-03-20T14:25:07.513Z,1.08
2023-03-20T14:27:55.762Z,1.50
2023-03-20T14:30:44.345Z,1.30
2023-03-20T14:33:17.364Z,1.48
2023-03-20T14:35:49.258Z,1.30
2023-03-20T14:39:26.633Z,1.50
2023-03-20T14:42:14.988Z,1.13
2023-03-20T14:44:55.510Z,1.33
2023-03-20T14:47:43.501Z,1.60
2023-03-20T14:50:26.260Z,1.95
2023-03-20T14:53:01.021Z,1.67
2023-03-20T14:55:31.640Z,1.10
2023-03-20T14:58:06.599Z,2.05
2023-03-20T15:00:46.546Z,1.90
2023-03-20T15:03:17.678Z,1.40
2023-03-20T15:05:45.856Z,1.45
2023-03-20T15:08:25.769Z,1.45
2023-03-20T15:11:02.058Z,1.48
2023-03-20T15:13:31.084Z,1.40
2023-03-20T15:16:09.568Z,1.90
2023-03-20T15:18:43.111Z,1.40
2023-03-20T15:21:18.604Z,1.08
2023-03-20T15:23:46.796Z,1.30
2023-03-20T15:26:18.921Z,1.52
2023-03-20T15:28:47.133Z,1.77
2023-03-20T15:31:46.553Z,1.25
2023-03-20T15:34:20.930Z,1.13
2023-03-20T15:36:48.459Z,1.33
2023-03-20T15:39:19.450Z,2.33
2023-03-20T15:41:50.460Z,3.08
2023-03-20T15:44:35.652Z,2.60
2023-03-20T15:47:24.023Z,1.63
2023-03-20T15:49:55.345Z,1.35
2023-03-20T15:52:30.765Z,1.52
2023-03-20T15:54:59.597Z,2.88
2023-03-20T15:57:41.057Z,1.27
2023-03-20T16:00:39.785Z,1.10
2023-03-20T16:03:11.217Z,1.98
2023-03-20T16:05:37.967Z,1.98
2023-03-20T16:08:15.797Z,3.33
2023-03-20T16:10:43.420Z,1.30
2023-03-20T16:13:13.817Z,1.00
2023-03-20T16:15:40.954Z,1.08
2023-03-20T16:18:10.808Z,1.27
2023-03-20T16:20:45.112Z,7.03
2023-03-20T16:23:20.687Z,1.45
2023-03-20T16:25:47.691Z,1.75
2023-03-20T16:28:16.189Z,2.53
2023-03-20T16:30:43.047Z,3.95
2023-03-20T16:33:15.724Z,1.42
2023-03-20T16:35:49.099Z,1.60
2023-03-20T16:38:26.672Z,1.30
2023-03-20T16:40:55.636Z,1.15
2023-03-20T16:43:28.425Z,1.42
2023-03-20T16:45:57.497Z,1.52
2023-03-20T16:48:27.641Z,2.10
2023-03-20T16:51:21.093Z,0.98
2023-03-20T16:53:50.390Z,1.80
2023-03-20T16:56:42.271Z,1.58
2023-03-20T16:59:11.641Z,2.35
2023-03-20T17:01:43.187Z,2.35
2023-03-20T17:04:29.269Z,1.23
2023-03-20T17:07:01.001Z,1.05
2023-03-20T17:09:31.298Z,3.28
2023-03-20T17:12:09.991Z,2.83
2023-03-20T17:14:36.675Z,3.50
2023-03-20T17:17:03.418Z,1.10
2023-03-20T17:19:32.875Z,2.47
2023-03-20T17:22:03.645Z,2.90
2023-03-20T17:24:30.562Z,2.78
2023-03-20T17:26:57.692Z,1.20
2023-03-20T17:29:24.445Z,1.20
2023-03-20T17:31:51.235Z,3.28
2023-03-20T17:34:17.990Z,2.10
2023-03-20T17:36:44.767Z,3.50
2023-03-20T17:39:18.907Z,2.05
2023-03-20T17:41:49.204Z,1.48
2023-03-20T17:44:16.054Z,1.60
2023-03-20T17:46:56.678Z,1.23
2023-03-20T17:49:27.138Z,1.23
2023-03-20T17:51:54.943Z,1.40
2023-03-20T17:54:21.780Z,8.80
2023-03-20T17:56:48.566Z,4.28
2023-03-20T17:59:15.319Z,3.28
2023-03-20T18:01:42.745Z,2.70
2023-03-20T18:04:09.637Z,2.53
2023-03-20T18:06:36.980Z,2.10
2023-03-20T18:09:04.413Z,2.17
2023-03-20T18:11:31.314Z,1.73
2023-03-20T18:13:58.219Z,1.63
2023-03-20T18:16:27.416Z,2.08
2023-03-20T18:18:55.206Z,2.22
2023-03-20T18:21:21.963Z,1.95
2023-03-20T18:23:48.806Z,3.28
2023-03-20T18:26:22.395Z,2.55
2023-03-20T18:28:51.406Z,2.47
2023-03-20T18:31:21.470Z,2.55
2023-03-20T18:33:50.186Z,2.25
2023-03-20T18:36:19.365Z,2.28
2023-03-20T18:38:46.541Z,3.00
2023-03-20T18:41:13.845Z,2.70
2023-03-20T18:43:41.011Z,2.60
2023-03-20T18:46:15.783Z,2.83
2023-03-20T18:48:43.446Z,2.42
2023-03-20T18:51:11.041Z,2.58
2023-03-20T18:53:38.151Z,3.15
2023-03-20T18:56:06.973Z,2.80
2023-03-20T18:58:33.730Z,3.83
2023-03-20T19:01:00.605Z,3.80
2023-03-20T19:03:28.581Z,3.67
2023-03-20T19:05:57.891Z,4.70
2023-03-20T19:08:25.011Z,3.55
2023-03-20T19:10:51.720Z,4.15
2023-03-20T19:13:20.475Z,4.72
2023-03-20T19:15:47.626Z,5.72
2023-03-20T19:18:26.186Z,12.13
2023-03-20T19:20:57.920Z,7.35
2023-03-20T19:23:26.097Z,6.13
2023-03-20T19:25:54.448Z,4.00
2023-03-20T19:28:39.111Z,6.60
2023-03-20T19:31:07.120Z,3.78
2023-03-20T19:33:34.416Z,4.13
2023-03-20T19:36:03.925Z,3.88
2023-03-20T19:38:31.898Z,4.25
2023-03-20T19:40:59.997Z,5.47
2023-03-20T19:43:29.009Z,4.40
2023-03-20T19:45:58.734Z,4.00
2023-03-20T19:48:43.380Z,9.18
2023-03-20T19:51:17.135Z,10.50
2023-03-20T19:53:44.735Z,7.35
2023-03-20T19:56:15.018Z,4.68
2023-03-20T19:58:41.982Z,5.00
2023-03-20T20:01:15.692Z,4.35
2023-03-20T20:03:44.075Z,6.20
2023-03-20T20:06:10.838Z,5.90
2023-03-20T20:08:49.084Z,6.97
2023-03-20T20:11:17.436Z,7.45
2023-03-20T20:16:32.792Z,6.00
2023-03-20T20:18:59.591Z,5.32
2023-03-20T20:24:15.199Z,5.88
2023-03-20T20:26:53.222Z,5.22
2023-03-20T20:29:21.384Z,4.78
2023-03-20T20:31:48.238Z,4.18
2023-03-20T20:35:14.911Z,5.43
2023-03-20T20:37:47.463Z,4.28
2023-03-20T20:39:49.112Z,4.57
2023-03-20T20:42:17.114Z,4.80
2023-03-20T20:44:44.648Z,5.03
2023-03-20T20:47:11.522Z,4.75
2023-03-20T20:49:38.356Z,4.72
2023-03-20T20:52:05.558Z,5.28
2023-03-20T20:54:34.038Z,7.45
2023-03-20T20:57:01.606Z,8.43
2023-03-20T20:59:29.066Z,9.55
2023-03-20T21:01:56.465Z,8.27
2023-03-20T21:04:23.586Z,7.40
2023-03-20T21:07:08.722Z,8.13
2023-03-20T21:09:36.622Z,7.38
2023-03-20T21:12:04.497Z,7.38
2023-03-20T21:14:31.675Z,7.60
2023-03-20T21:17:01.250Z,7.47
2023-03-20T21:19:35.537Z,6.97
2023-03-20T21:22:02.447Z,7.35
2023-03-20T21:24:33.808Z,7.57
2023-03-20T21:27:13.808Z,7.05
2023-03-20T21:29:42.022Z,6.97
2023-03-20T21:32:10.962Z,6.95
2023-03-20T21:34:40.278Z,7.25
2023-03-20T21:38:08.650Z,7.63
2023-03-20T21:39:56.923Z,9.18
2023-03-20T21:42:23.675Z,7.13
2023-03-20T21:48:23.621Z,7.72
2023-03-20T21:50:52.650Z,7.45
2023-03-20T21:54:17.579Z,7.95
2023-03-20T21:56:40.202Z,6.00
2023-03-20T21:59:36.771Z,6.95
2023-03-20T22:02:08.375Z,7.40
2023-03-20T22:16:04.705Z,5.32
2023-03-20T22:21:48.451Z,5.20
2023-03-20T22:24:39.308Z,5.30
2023-03-20T22:27:26.978Z,5.68
2023-03-20T22:30:11.930Z,5.60
2023-03-20T22:44:25.931Z,5.90
2023-03-20T22:46:39.974Z,5.07
2023-03-20T22:48:59.236Z,5.68
2023-03-20T22:51:34.338Z,6.07
2023-03-20T22:54:02.692Z,4.88
2023-03-20T22:56:29.490Z,4.47
2023-03-20T22:58:56.283Z,4.57
2023-03-20T23:01:23.123Z,5.65
2023-03-20T23:03:49.892Z,4.90
2023-03-20T23:06:23.557Z,5.43
2023-03-20T23:08:55.497Z,7.68
2023-03-20T23:11:25.919Z,4.53
2023-03-20T23:13:53.512Z,4.95
2023-03-20T23:16:20.958Z,6.05
2023-03-20T23:18:47.882Z,5.88
2023-03-20T23:21:14.690Z,5.97
2023-03-20T23:23:41.398Z,7.68
2023-03-20T23:26:09.593Z,6.07
2023-03-20T23:28:38.240Z,6.13
2023-03-20T23:31:15.247Z,7.63
2023-03-20T23:33:44.342Z,5.10
2023-03-20T23:36:24.746Z,4.85
2023-03-20T23:38:58.258Z,5.30
2023-03-20T23:41:49.354Z,6.00
2023-03-20T23:44:11.701Z,4.80
2023-03-20T23:46:38.424Z,5.75
2023-03-20T23:49:06.329Z,5.72
2023-03-20T23:51:33.160Z,4.78
2023-03-20T23:53:59.870Z,4.88
2023-03-20T23:56:26.617Z,4.50
2023-03-20T23:58:59.542Z,4.88
